Time;durP1;ratioP1;P1;durP2;ratioP2;P2;SDS_P1;SDS_P2;PMS_P1;PMS_P2;Temp;Humidity;BMP_temperature;BMP_pressure;BME280_temperature;BME280_humidity;BME280_pressure;Samples;Min_cycle;Max_cycle;Signal;HPM_P1;HPM_P2
2020/12/21 08:46:00;;;;;;;;;;;16.80;60.10;;;;;;5091706;27;19922;-70
2020/12/21 08:48:26;;;;;;;;;;;16.70;59.30;;;;;;5085880;28;19931;-68
2020/12/21 08:50:52;;;;;;;;;;;16.80;58.90;;;;;;5135232;27;19932;-69
2020/12/21 08:53:19;;;;;;;;;;;17.10;57.90;;;;;;5101333;28;19947;-66
2020/12/21 08:55:45;;;;;;;;;;;17.30;56.50;;;;;;5085719;28;19932;-67
2020/12/21 08:58:11;;;;;;;;;;;17.50;55.60;;;;;;5091907;28;20384;-71
2020/12/21 09:00:38;;;;;;;;;;;17.70;55.30;;;;;;5106694;28;19924;-72
2020/12/21 09:03:04;;;;;;;;;;;18.00;54.60;;;;;;5090537;28;20381;-71
2020/12/21 09:05:31;;;;;;;;;;;18.20;53.50;;;;;;5085757;28;19947;-69
2020/12/21 09:07:57;;;;;;;;;;;18.10;53.70;;;;;;5095965;28;19974;-71
2020/12/21 09:10:23;;;;;;;;;;;18.20;53.50;;;;;;5106494;28;19970;-69
2020/12/21 09:12:50;;;;;;;;;;;18.40;52.90;;;;;;5100527;28;19931;-71
2020/12/21 09:15:16;;;;;;;;;;;18.40;52.30;;;;;;5091596;28;20295;-70
2020/12/21 09:17:42;;;;;;;;;;;18.20;52.60;;;;;;5106154;28;20355;-72
2020/12/21 09:20:08;;;;;;;;;;;18.30;52.80;;;;;;5074540;28;19925;-70
2020/12/21 09:22:35;;;;;;;;;;;18.40;52.40;;;;;;5065633;28;19935;-71
2020/12/21 09:25:01;;;;;;;;;;;18.30;52.40;;;;;;5065150;28;19925;-72
2020/12/21 09:27:30;;;;;;;;;;;18.00;53.00;;;;;;5065438;28;19924;-66
2020/12/21 09:29:56;;;;;;;;;;;18.10;53.50;;;;;;5067637;28;19925;-69
2020/12/21 09:32:22;;;;;;;;;;;18.10;53.40;;;;;;5085305;28;19931;-68
2020/12/21 09:34:49;;;;;;;;;;;18.00;53.30;;;;;;5085653;28;19931;-66
2020/12/21 09:37:15;;;;;;;;;;;17.80;53.90;;;;;;5085483;28;19928;-66
2020/12/21 09:39:41;;;;;;;;;;;17.90;54.00;;;;;;5085468;28;19980;-70
2020/12/21 09:42:08;;;;;;;;;;;18.00;53.30;;;;;;5117603;28;19925;-73
2020/12/21 09:44:34;;;;;;;;;;;18.00;53.40;;;;;;5084733;28;19925;-78
2020/12/21 09:47:00;;;;;;;;;;;18.00;53.40;;;;;;5104654;28;19955;-65
2020/12/21 09:49:28;;;;;;;;;;;18.00;53.00;;;;;;5105507;28;19924;-68
2020/12/21 09:51:54;;;;;;;;;;;17.90;53.40;;;;;;5105580;28;19973;-73
2020/12/21 09:54:21;;;;;;;;;;;18.20;53.00;;;;;;5089148;28;19924;-70
2020/12/21 09:56:50;;;;;;;;;;;18.40;52.70;;;;;;5073950;28;19932;-70
2020/12/21 09:59:16;;;;;;;;;;;18.50;52.00;;;;;;5103898;28;19924;-75
2020/12/21 10:01:43;;;;;;;;;;;18.50;51.80;;;;;;5071517;28;19925;-67
2020/12/21 10:04:09;;;;;;;;;;;18.60;51.70;;;;;;5071369;28;19924;-68
2020/12/21 10:06:35;;;;;;;;;;;18.70;51.30;;;;;;5071334;28;19929;-66
2020/12/21 10:09:01;;;;;;;;;;;18.50;51.20;;;;;;5090077;28;19928;-66
2020/12/21 10:11:28;;;;;;;;;;;18.40;51.60;;;;;;5091251;28;20418;-66
2020/12/21 10:13:54;;;;;;;;;;;18.30;52.00;;;;;;5077942;28;19935;-67
2020/12/21 10:16:20;;;;;;;;;;;18.10;52.10;;;;;;5071329;28;19924;-68
2020/12/21 10:18:46;;;;;;;;;;;18.10;52.50;;;;;;5070767;28;20381;-65
2020/12/21 10:21:13;;;;;;;;;;;18.00;52.80;;;;;;5070617;28;19929;-64
2020/12/21 10:23:39;;;;;;;;;;;18.00;52.70;;;;;;5069796;28;20302;-65
2020/12/21 10:26:05;;;;;;;;;;;18.10;52.60;;;;;;5071136;28;20399;-67
2020/12/21 10:28:32;;;;;;;;;;;18.20;52.60;;;;;;5071056;28;19931;-67
2020/12/21 10:30:58;;;;;;;;;;;18.20;51.70;;;;;;5071012;28;19929;-73
2020/12/21 10:33:24;;;;;;;;;;;17.90;52.80;;;;;;5070399;28;20420;-69
2020/12/21 10:35:51;;;;;;;;;;;18.00;52.90;;;;;;5070958;28;19924;-66
2020/12/21 10:38:17;;;;;;;;;;;18.10;52.40;;;;;;5069608;28;20292;-68
2020/12/21 10:40:43;;;;;;;;;;;18.20;52.20;;;;;;5070851;28;19932;-66
2020/12/21 10:43:09;;;;;;;;;;;18.20;52.00;;;;;;5070939;28;20414;-65
2020/12/21 10:45:36;;;;;;;;;;;18.20;51.90;;;;;;5073637;28;19924;-66
2020/12/21 10:48:03;;;;;;;;;;;18.30;51.90;;;;;;5090743;28;19924;-68
2020/12/21 10:50:29;;;;;;;;;;;18.40;51.70;;;;;;5090347;28;20461;-70
2020/12/21 10:52:56;;;;;;;;;;;18.40;51.60;;;;;;5086018;28;20452;-72
2020/12/21 10:55:22;;;;;;;;;;;18.20;52.00;;;;;;5070193;28;20376;-68
2020/12/21 10:57:48;;;;;;;;;;;18.00;52.90;;;;;;5070459;28;20038;-67
2020/12/21 11:00:14;;;;;;;;;;;18.20;52.40;;;;;;5070664;28;19928;-72
2020/12/21 11:02:41;;;;;;;;;;;18.30;52.10;;;;;;5068844;28;19939;-69
2020/12/21 11:05:07;;;;;;;;;;;18.30;52.30;;;;;;5070142;28;20388;-71
2020/12/21 11:07:34;;;;;;;;;;;18.20;52.60;;;;;;5075841;28;19970;-69
2020/12/21 11:10:11;;;;;;;;;;;18.00;53.20;;;;;;5090626;28;20419;-67
2020/12/21 11:12:37;;;;;;;;;;;18.00;53.40;;;;;;5087483;28;19931;-65
2020/12/21 11:15:05;;;;;;;;;;;17.90;53.70;;;;;;5070017;28;19928;-64
2020/12/21 11:17:31;;;;;;;;;;;17.90;54.10;;;;;;5069717;28;19924;-65
2020/12/21 11:19:58;;;;;;;;;;;17.80;54.20;;;;;;5069288;28;19931;-66
2020/12/21 11:22:24;;;;;;;;;;;17.80;54.30;;;;;;5070003;28;19970;-66
2020/12/21 11:24:50;;;;;;;;;;;17.70;54.50;;;;;;5069832;28;19924;-74
2020/12/21 11:27:17;;;;;;;;;;;17.80;54.50;;;;;;5069647;28;19977;-72
2020/12/21 11:29:43;;;;;;;;;;;17.70;55.40;;;;;;5068879;28;19934;-71
2020/12/21 11:32:20;;;;;;;;;;;17.50;55.50;;;;;;5050384;28;19933;-64
2020/12/21 11:34:46;;;;;;;;;;;17.40;56.50;;;;;;5049686;28;19979;-65
2020/12/21 11:37:12;;;;;;;;;;;17.40;56.20;;;;;;5049634;28;20266;-68
2020/12/21 11:39:39;;;;;;;;;;;17.30;56.30;;;;;;5049545;28;19925;-70
2020/12/21 11:42:08;;;;;;;;;;;17.40;56.30;;;;;;5049685;28;19928;-66
2020/12/21 11:44:35;;;;;;;;;;;17.50;55.90;;;;;;5049118;28;20359;-64
2020/12/21 11:47:01;;;;;;;;;;;17.60;55.70;;;;;;5084036;28;19932;-64
2020/12/21 11:49:28;;;;;;;;;;;17.40;56.40;;;;;;5089148;28;19966;-68
2020/12/21 11:51:55;;;;;;;;;;;17.40;56.50;;;;;;5089449;28;20202;-65
2020/12/21 11:54:21;;;;;;;;;;;17.40;56.50;;;;;;5073048;28;19924;-64
2020/12/21 11:56:48;;;;;;;;;;;17.50;56.50;;;;;;5068941;28;19936;-64
2020/12/21 11:59:14;;;;;;;;;;;17.30;57.00;;;;;;5069168;28;20319;-64
2020/12/21 12:01:41;;;;;;;;;;;17.50;56.60;;;;;;5069273;28;20265;-72
2020/12/21 12:04:07;;;;;;;;;;;17.50;56.30;;;;;;5069217;28;20335;-70
2020/12/21 12:06:33;;;;;;;;;;;17.50;56.70;;;;;;5069706;28;19928;-71
2020/12/21 12:09:00;;;;;;;;;;;17.60;56.30;;;;;;5087490;28;19924;-70
2020/12/21 12:11:26;;;;;;;;;;;17.50;56.50;;;;;;5089516;28;19924;-64
2020/12/21 12:13:52;;;;;;;;;;;17.60;56.00;;;;;;5076090;28;19971;-65
2020/12/21 12:16:19;;;;;;;;;;;17.60;55.90;;;;;;5069442;28;19924;-70
2020/12/21 12:18:46;;;;;;;;;;;17.60;56.20;;;;;;5067097;28;20379;-71
2020/12/21 12:21:19;;;;;;;;;;;17.60;56.60;;;;;;5068384;28;20376;-67
2020/12/21 12:23:45;;;;;;;;;;;17.50;56.60;;;;;;5069141;28;19925;-64
2020/12/21 12:26:14;;;;;;;;;;;17.50;57.20;;;;;;5068720;28;19932;-73
2020/12/21 12:28:41;;;;;;;;;;;17.50;56.90;;;;;;5068783;28;20166;-70
2020/12/21 12:31:08;;;;;;;;;;;17.30;57.80;;;;;;5068910;28;19924;-72
2020/12/21 12:33:34;;;;;;;;;;;17.50;57.40;;;;;;5068505;28;20380;-72
2020/12/21 12:36:00;;;;;;;;;;;17.50;57.50;;;;;;5068750;28;19924;-67
2020/12/21 12:38:27;;;;;;;;;;;17.50;57.60;;;;;;5068979;28;19932;-70
2020/12/21 12:41:01;;;;;;;;;;;17.60;57.50;;;;;;5068754;28;20544;-67
2020/12/21 12:43:27;;;;;;;;;;;17.50;58.00;;;;;;5068568;28;20359;-69
2020/12/21 12:45:53;;;;;;;;;;;17.40;58.30;;;;;;5078278;28;19946;-68
2020/12/21 12:48:19;;;;;;;;;;;17.40;58.60;;;;;;5089059;28;19950;-66
2020/12/21 12:50:46;;;;;;;;;;;17.40;58.50;;;;;;5088374;28;19928;-72
2020/12/21 12:53:12;;;;;;;;;;;17.20;59.30;;;;;;5081309;28;19925;-73
2020/12/21 12:55:39;;;;;;;;;;;17.20;59.80;;;;;;5068790;28;20165;-66
2020/12/21 12:58:05;;;;;;;;;;;17.20;60.10;;;;;;5068480;28;19929;-70
2020/12/21 13:00:31;;;;;;;;;;;17.20;59.90;;;;;;5068661;28;20429;-68
2020/12/21 13:02:57;;;;;;;;;;;17.30;60.20;;;;;;5068626;28;19959;-65
2020/12/21 13:05:24;;;;;;;;;;;17.20;60.70;;;;;;5068330;28;19976;-73
2020/12/21 13:07:50;;;;;;;;;;;17.00;61.40;;;;;;5077244;28;19935;-74
2020/12/21 13:10:16;;;;;;;;;;;17.10;61.10;;;;;;5088574;28;19924;-70
2020/12/21 13:12:43;;;;;;;;;;;17.10;61.50;;;;;;5083665;28;19924;-66
2020/12/21 13:15:09;;;;;;;;;;;17.10;60.60;;;;;;5068196;28;19932;-66
2020/12/21 13:17:35;;;;;;;;;;;17.10;61.40;;;;;;5066948;28;19928;-69
2020/12/21 13:20:03;;;;;;;;;;;17.20;60.40;;;;;;5068299;28;20002;-64
2020/12/21 13:22:29;;;;;;;;;;;17.30;61.00;;;;;;5068320;28;19924;-64
2020/12/21 13:24:55;;;;;;;;;;;17.30;61.30;;;;;;5068381;28;19929;-64
2020/12/21 13:27:22;;;;;;;;;;;17.40;61.20;;;;;;5068215;28;20116;-65
2020/12/21 13:29:49;;;;;;;;;;;17.40;61.10;;;;;;5068421;28;20146;-65
2020/12/21 13:32:15;;;;;;;;;;;17.40;61.20;;;;;;5071028;28;19930;-66
2020/12/21 13:34:41;;;;;;;;;;;17.30;61.00;;;;;;5072245;28;19928;-64
2020/12/21 13:37:08;;;;;;;;;;;17.20;61.80;;;;;;5071776;28;19924;-64
2020/12/21 13:39:34;;;;;;;;;;;17.40;61.70;;;;;;5071893;28;19935;-65
2020/12/21 13:42:11;;;;;;;;;;;17.30;61.60;;;;;;5072121;28;19924;-72
2020/12/21 13:44:38;;;;;;;;;;;17.50;61.10;;;;;;5071161;28;19924;-73
2020/12/21 13:47:04;;;;;;;;;;;17.50;61.60;;;;;;5087463;28;19963;-70
2020/12/21 13:49:31;;;;;;;;;;;17.70;61.40;;;;;;5092038;28;19931;-70
2020/12/21 13:51:57;;;;;;;;;;;17.60;61.40;;;;;;5092117;28;20304;-68
2020/12/21 13:54:23;;;;;;;;;;;17.70;60.90;;;;;;5075503;28;19924;-69
2020/12/21 13:56:49;;;;;;;;;;;17.70;60.50;;;;;;5071405;28;20289;-73
2020/12/21 13:59:15;;;;;;;;;;;17.60;62.20;;;;;;5071758;28;19932;-72
2020/12/21 14:01:42;;;;;;;;;;;17.50;62.70;;;;;;5071381;28;19929;-70
2020/12/21 14:04:08;;;;;;;;;;;17.50;62.90;;;;;;5071500;28;19932;-70
2020/12/21 14:06:34;;;;;;;;;;;17.40;62.90;;;;;;5071546;28;19939;-71
2020/12/21 14:09:01;;;;;;;;;;;17.50;62.90;;;;;;5090022;28;20011;-72
2020/12/21 14:11:28;;;;;;;;;;;17.60;62.70;;;;;;5091574;28;19925;-70
2020/12/21 14:13:54;;;;;;;;;;;17.70;62.20;;;;;;5077803;28;19975;-71
2020/12/21 14:16:21;;;;;;;;;;;17.80;61.60;;;;;;5071179;28;19928;-72
2020/12/21 14:18:48;;;;;;;;;;;17.90;61.70;;;;;;5071329;28;19978;-67
2020/12/21 14:21:14;;;;;;;;;;;18.00;61.50;;;;;;5069827;28;19928;-65
2020/12/21 14:23:41;;;;;;;;;;;17.90;61.80;;;;;;5071396;28;20189;-70
2020/12/21 14:26:07;;;;;;;;;;;17.90;63.20;;;;;;5070706;28;19929;-65
2020/12/21 14:28:38;;;;;;;;;;;17.80;64.10;;;;;;5070905;28;19970;-64
2020/12/21 14:31:05;;;;;;;;;;;17.80;63.80;;;;;;5070718;28;20007;-67
2020/12/21 14:33:31;;;;;;;;;;;17.90;62.90;;;;;;5070665;28;19931;-67
2020/12/21 14:35:57;;;;;;;;;;;18.00;62.60;;;;;;5070595;28;19931;-69
2020/12/21 14:38:30;;;;;;;;;;;18.30;60.50;;;;;;5071132;28;20371;-66
2020/12/21 14:40:56;;;;;;;;;;;18.40;59.20;;;;;;5070819;28;19974;-69
2020/12/21 14:43:23;;;;;;;;;;;18.60;59.30;;;;;;5070482;28;20118;-65
2020/12/21 14:45:49;;;;;;;;;;;18.80;58.00;;;;;;5070382;28;19924;-66
2020/12/21 14:48:15;;;;;;;;;;;19.10;58.40;;;;;;5050874;28;19939;-70
2020/12/21 14:50:42;;;;;;;;;;;19.10;58.30;;;;;;5083790;28;19928;-72
2020/12/21 14:53:08;;;;;;;;;;;19.20;58.40;;;;;;5081338;28;20019;-66
2020/12/21 14:55:37;;;;;;;;;;;19.30;57.80;;;;;;5066005;28;20209;-69
2020/12/21 14:58:04;;;;;;;;;;;19.50;57.20;;;;;;5067916;28;19925;-69
2020/12/21 15:00:31;;;;;;;;;;;19.50;57.20;;;;;;5069694;28;19925;-70
2020/12/21 15:02:57;;;;;;;;;;;19.50;57.40;;;;;;5070082;28;20347;-71
2020/12/21 15:05:23;;;;;;;;;;;19.40;58.20;;;;;;5068355;28;19931;-70
2020/12/21 15:07:49;;;;;;;;;;;19.40;58.50;;;;;;5078936;28;19924;-71
2020/12/21 15:10:16;;;;;;;;;;;19.60;57.70;;;;;;5090696;28;19925;-66
2020/12/21 15:12:42;;;;;;;;;;;19.70;57.20;;;;;;5087132;28;19928;-69
2020/12/21 15:15:10;;;;;;;;;;;19.80;56.80;;;;;;5068060;28;20038;-70
2020/12/21 15:17:36;;;;;;;;;;;19.80;57.10;;;;;;5068065;28;19925;-69
2020/12/21 15:20:03;;;;;;;;;;;19.60;57.70;;;;;;5065029;28;19939;-68
2020/12/21 15:22:30;;;;;;;;;;;19.30;59.30;;;;;;5069165;28;19924;-69
2020/12/21 15:24:56;;;;;;;;;;;19.30;59.70;;;;;;5063735;28;19933;-67
2020/12/21 15:27:22;;;;;;;;;;;19.20;61.20;;;;;;5067106;28;19925;-69
2020/12/21 15:29:49;;;;;;;;;;;19.10;61.50;;;;;;5061715;28;19925;-70
2020/12/21 15:32:15;;;;;;;;;;;19.00;61.60;;;;;;5068854;28;19932;-67
2020/12/21 15:34:41;;;;;;;;;;;18.90;61.90;;;;;;5065023;28;19943;-72
2020/12/21 15:37:08;;;;;;;;;;;18.80;62.50;;;;;;5069689;28;19965;-72
2020/12/21 15:39:34;;;;;;;;;;;18.80;62.40;;;;;;5069906;28;19932;-70
2020/12/21 15:42:01;;;;;;;;;;;18.80;62.60;;;;;;5069234;28;20185;-67
2020/12/21 15:44:28;;;;;;;;;;;18.70;62.60;;;;;;5067190;28;19928;-64
2020/12/21 15:46:55;;;;;;;;;;;18.80;63.40;;;;;;5068497;28;19924;-66
2020/12/21 15:49:21;;;;;;;;;;;18.70;63.70;;;;;;5077991;28;20362;-74
2020/12/21 15:51:48;;;;;;;;;;;18.80;63.70;;;;;;5067871;28;19924;-73
2020/12/21 15:54:15;;;;;;;;;;;18.90;63.10;;;;;;5068702;28;20388;-70
2020/12/21 15:56:41;;;;;;;;;;;18.80;63.80;;;;;;5073797;28;20033;-72
2020/12/21 15:59:11;;;;;;;;;;;18.80;63.60;;;;;;5068608;28;20384;-72
2020/12/21 16:01:38;;;;;;;;;;;18.80;64.10;;;;;;5069466;28;19924;-70
2020/12/21 16:04:04;;;;;;;;;;;18.80;64.40;;;;;;5069519;28;19925;-71
2020/12/21 16:06:31;;;;;;;;;;;18.90;64.30;;;;;;5069611;28;20011;-74
2020/12/21 16:08:57;;;;;;;;;;;18.90;64.30;;;;;;5069467;28;20397;-74
2020/12/21 16:11:23;;;;;;;;;;;18.70;64.90;;;;;;5059627;28;19940;-73
2020/12/21 16:13:49;;;;;;;;;;;18.80;64.60;;;;;;5066838;28;20346;-69
2020/12/21 16:16:16;;;;;;;;;;;18.90;64.60;;;;;;5067163;28;19925;-74
2020/12/21 16:18:42;;;;;;;;;;;18.90;64.80;;;;;;5060046;28;19935;-72
2020/12/21 16:21:08;;;;;;;;;;;18.80;65.10;;;;;;5068449;28;19924;-70
2020/12/21 16:23:36;;;;;;;;;;;18.80;65.10;;;;;;5068445;28;19993;-71
2020/12/21 16:26:03;;;;;;;;;;;18.90;64.60;;;;;;5068952;28;19925;-73
2020/12/21 16:28:31;;;;;;;;;;;18.90;64.70;;;;;;5081584;28;19925;-71
2020/12/21 16:31:00;;;;;;;;;;;19.00;64.30;;;;;;5068905;28;19947;-72
2020/12/21 16:33:27;;;;;;;;;;;19.10;63.50;;;;;;5068016;28;20101;-68
2020/12/21 16:35:53;;;;;;;;;;;19.40;62.40;;;;;;5068066;28;19925;-69
2020/12/21 16:38:20;;;;;;;;;;;19.60;61.70;;;;;;5067979;28;20405;-70
2020/12/21 16:40:46;;;;;;;;;;;19.60;61.60;;;;;;5070832;28;19924;-69
2020/12/21 16:43:26;;;;;;;;;;;19.70;62.00;;;;;;5057950;28;19932;-71
2020/12/21 16:45:53;;;;;;;;;;;19.60;61.90;;;;;;5063765;28;19961;-69
2020/12/21 16:48:19;;;;;;;;;;;19.60;62.40;;;;;;5066179;28;19929;-70
2020/12/21 16:50:45;;;;;;;;;;;19.60;62.30;;;;;;5069347;28;19932;-72
2020/12/21 16:53:11;;;;;;;;;;;19.80;62.10;;;;;;5070284;28;19933;-72
2020/12/21 16:55:40;;;;;;;;;;;19.90;61.30;;;;;;5066193;28;19928;-68
2020/12/21 16:58:06;;;;;;;;;;;20.00;60.90;;;;;;5077978;28;19927;-70
2020/12/21 17:00:33;;;;;;;;;;;20.10;60.30;;;;;;5070780;28;19920;-71
2020/12/21 17:02:59;;;;;;;;;;;20.20;59.50;;;;;;5070591;28;19924;-75
2020/12/21 17:05:26;;;;;;;;;;;20.40;59.40;;;;;;5073493;28;19936;-70
2020/12/21 17:07:54;;;;;;;;;;;20.40;59.20;;;;;;5075032;28;19925;-70
2020/12/21 17:10:23;;;;;;;;;;;20.40;59.40;;;;;;5073386;28;19928;-69
2020/12/21 17:12:49;;;;;;;;;;;20.50;59.60;;;;;;5102029;27;19928;-69
2020/12/21 17:15:15;;;;;;;;;;;20.40;59.80;;;;;;5070528;28;19928;-71
2020/12/21 17:17:41;;;;;;;;;;;20.40;59.60;;;;;;5074219;28;19935;-70
2020/12/21 17:20:09;;;;;;;;;;;20.50;59.70;;;;;;5073547;28;19928;-69
2020/12/21 17:22:36;;;;;;;;;;;20.30;60.40;;;;;;5079210;28;19928;-72
2020/12/21 17:25:02;;;;;;;;;;;20.30;60.90;;;;;;5070878;28;19924;-71
2020/12/21 17:27:29;;;;;;;;;;;20.40;60.70;;;;;;5085760;28;20395;-72
2020/12/21 17:29:55;;;;;;;;;;;20.40;60.60;;;;;;5072951;28;19924;-72
2020/12/21 17:32:22;;;;;;;;;;;20.40;61.10;;;;;;5072462;28;19931;-71
2020/12/21 17:34:48;;;;;;;;;;;21.30;61.50;;;;;;5076751;28;19924;-71
2020/12/21 17:37:14;;;;;;;;;;;20.60;60.60;;;;;;5085160;28;19951;-71
2020/12/21 17:39:41;;;;;;;;;;;20.80;60.50;;;;;;5075102;28;20380;-75
2020/12/21 17:42:08;;;;;;;;;;;20.70;60.20;;;;;;5073036;28;19978;-73
2020/12/21 17:44:38;;;;;;;;;;;20.80;59.60;;;;;;5074201;28;19968;-72
2020/12/21 17:47:04;;;;;;;;;;;20.60;60.50;;;;;;5074279;28;20328;-72
2020/12/21 17:49:31;;;;;;;;;;;20.50;61.20;;;;;;5076908;28;20312;-69
2020/12/21 17:52:00;;;;;;;;;;;20.60;60.50;;;;;;5077925;28;19924;-81
2020/12/21 17:54:27;;;;;;;;;;;20.60;60.90;;;;;;5072512;28;19929;-75
2020/12/21 17:56:53;;;;;;;;;;;20.60;60.30;;;;;;5078626;28;19920;-75
2020/12/21 17:59:20;;;;;;;;;;;20.80;60.00;;;;;;5076838;28;19970;-74
2020/12/21 18:01:47;;;;;;;;;;;20.80;59.90;;;;;;5080227;28;19952;-74
2020/12/21 18:04:14;;;;;;;;;;;20.80;60.00;;;;;;5079906;28;19931;-77
2020/12/21 18:06:45;;;;;;;;;;;20.70;60.40;;;;;;5070743;28;20408;-74
2020/12/21 18:09:12;;;;;;;;;;;20.70;60.30;;;;;;5071397;28;19925;-70
2020/12/21 18:11:46;;;;;;;;;;;20.80;60.30;;;;;;5085045;28;19924;-73
2020/12/21 18:14:22;;;;;;;;;;;20.90;59.80;;;;;;5074822;28;20026;-74
2020/12/21 18:16:53;;;;;;;;;;;20.80;60.00;;;;;;5071588;28;19924;-72
2020/12/21 18:19:21;;;;;;;;;;;20.80;60.30;;;;;;5072960;28;19943;-64
2020/12/21 18:21:49;;;;;;;;;;;20.70;60.30;;;;;;5069613;28;19925;-74
2020/12/21 18:24:15;;;;;;;;;;;20.70;60.30;;;;;;5106046;27;19936;-74
2020/12/21 18:26:42;;;;;;;;;;;20.70;60.60;;;;;;5075416;28;19932;-71
2020/12/21 18:29:08;;;;;;;;;;;20.60;61.00;;;;;;5070877;28;20388;-73
2020/12/21 18:31:35;;;;;;;;;;;20.60;61.40;;;;;;5070090;28;20335;-68
2020/12/21 18:34:02;;;;;;;;;;;20.50;61.50;;;;;;5068641;28;19928;-67
2020/12/21 18:36:32;;;;;;;;;;;20.60;61.20;;;;;;5078577;28;19941;-66
2020/12/21 18:38:59;;;;;;;;;;;20.70;60.90;;;;;;5072224;28;20289;-68
2020/12/21 18:41:26;;;;;;;;;;;20.80;60.70;;;;;;5071373;28;20403;-65
2020/12/21 18:43:54;;;;;;;;;;;21.00;60.20;;;;;;5071834;28;20325;-65
2020/12/21 18:46:20;;;;;;;;;;;21.20;59.70;;;;;;5071162;28;19925;-68
2020/12/21 18:48:47;;;;;;;;;;;21.20;59.50;;;;;;5069895;28;20262;-68
